Time,TemperatureF,DewpointF,PressureIn,WindDirection,WindDirectionDegrees,WindSpeedMPH,WindSpeedGustMPH,Humidity,HourlyPrecipIn,Conditions,Clouds,dailyrainin,SoftwareType,DateUTC
2014-03-03 00:01:00,63.1,49.0,29.85,South,178,7.0,11.0,60,0.00,,,0.00,weatherlink.com 1.10,2014-03-03 05:01:00,
2014-03-03 00:16:00,63.1,49.0,29.84,SSW,209,8.0,13.0,60,0.00,,,0.00,weatherlink.com 1.10,2014-03-03 05:16:00,
2014-03-03 00:31:00,63.3,49.0,29.83,SE,146,10.0,13.0,60,0.00,,,0.00,weatherlink.com 1.10,2014-03-03 05:31:00,
2014-03-03 00:46:00,63.4,49.0,29.82,South,182,13.0,18.0,60,0.00,,,0.00,weatherlink.com 1.10,2014-03-03 05:46:00,
2014-03-03 01:01:00,63.2,49.0,29.82,SSW,209,9.0,14.0,61,0.00,,,0.00,weatherlink.com 1.10,2014-03-03 06:01:00,
2014-03-03 01:16:00,63.0,51.0,29.82,South,172,7.0,15.0,65,0.00,,,0.00,weatherlink.com 1.10,2014-03-03 06:16:00,
2014-03-03 01:31:00,62.2,51.0,29.82,SW,219,8.0,16.0,67,0.00,,,0.00,weatherlink.com 1.10,2014-03-03 06:31:00,
2014-03-03 01:46:00,61.5,52.0,29.81,SSW,194,1.0,16.0,71,0.00,,,0.00,weatherlink.com 1.10,2014-03-03 06:46:00,
2014-03-03 02:01:00,60.6,52.0,29.80,WSW,243,2.0,12.0,73,0.00,,,0.00,weatherlink.com 1.10,2014-03-03 07:01:00,
2014-03-03 02:17:00,56.9,49.0,29.81,WNW,296,3.0,10.0,76,0.00,,,0.00,weatherlink.com 1.10,2014-03-03 07:17:00,
2014-03-03 02:32:00,52.3,48.0,29.79,NNW,338,2.0,9.0,86,0.00,,,0.00,weatherlink.com 1.10,2014-03-03 07:32:00,
2014-03-03 02:47:00,49.5,47.0,29.79,WNW,282,4.0,10.0,90,0.00,,,0.00,weatherlink.com 1.10,2014-03-03 07:47:00,
2014-03-03 03:02:00,47.7,46.0,29.79,NNW,338,4.0,13.0,92,0.00,,,0.00,weatherlink.com 1.10,2014-03-03 08:02:00,
2014-03-03 03:17:00,46.1,44.0,29.79,WNW,291,7.0,12.0,92,0.00,,,0.00,weatherlink.com 1.10,2014-03-03 08:17:00,
2014-03-03 03:32:00,45.0,43.0,29.77,NW,314,1.0,8.0,93,0.00,,,0.00,weatherlink.com 1.10,2014-03-03 08:32:00,
2014-03-03 03:47:00,43.0,41.0,29.91,NW,314,6.0,28.0,92,0.01,,,0.01,weatherlink.com 1.10,2014-03-03 08:47:00,
2014-03-03 04:02:00,41.5,40.0,29.82,NW,323,1.0,6.0,94,0.10,,,0.10,weatherlink.com 1.10,2014-03-03 09:02:00,
2014-03-03 04:17:00,41.7,40.0,29.81,WNW,301,1.0,5.0,95,0.14,,,0.14,weatherlink.com 1.10,2014-03-03 09:17:00,
2014-03-03 04:32:00,42.0,41.0,29.82,North,355,0.0,5.0,95,0.18,,,0.18,weatherlink.com 1.10,2014-03-03 09:32:00,
2014-03-03 04:47:00,41.6,40.0,29.80,NW,310,0.0,1.0,95,0.19,,,0.20,weatherlink.com 1.10,2014-03-03 09:47:00,
2014-03-03 05:02:00,41.4,40.0,29.80,NW,319,0.0,3.0,95,0.13,,,0.23,weatherlink.com 1.10,2014-03-03 10:02:00,
2014-03-03 05:17:00,41.1,40.0,29.81,WNW,294,1.0,6.0,95,0.14,,,0.28,weatherlink.com 1.10,2014-03-03 10:17:00,
2014-03-03 05:32:00,40.8,40.0,29.80,WNW,296,2.0,3.0,95,0.14,,,0.32,weatherlink.com 1.10,2014-03-03 10:32:00,
2014-03-03 05:47:00,40.4,39.0,29.82,WNW,290,0.0,4.0,95,0.13,,,0.33,weatherlink.com 1.10,2014-03-03 10:47:00,
2014-03-03 06:02:00,39.6,38.0,29.82,NNW,340,1.0,6.0,95,0.11,,,0.34,weatherlink.com 1.10,2014-03-03 11:02:00,
2014-03-03 06:17:00,39.0,38.0,29.82,NE,41,2.0,5.0,96,0.06,,,0.34,weatherlink.com 1.10,2014-03-03 11:17:00,
2014-03-03 06:32:00,38.7,37.0,29.82,WNW,296,2.0,9.0,95,0.02,,,0.34,weatherlink.com 1.10,2014-03-03 11:32:00,
2014-03-03 06:47:00,38.3,37.0,29.83,NNW,339,1.0,12.0,96,0.02,,,0.35,weatherlink.com 1.10,2014-03-03 11:47:00,
2014-03-03 07:02:00,37.6,36.0,29.84,WNW,298,1.0,15.0,95,0.03,,,0.37,weatherlink.com 1.10,2014-03-03 12:02:00,
2014-03-03 07:17:00,37.3,36.0,29.85,NW,325,2.0,8.0,96,0.04,,,0.38,weatherlink.com 1.10,2014-03-03 12:17:00,
2014-03-03 07:33:00,37.1,36.0,29.86,WNW,300,2.0,11.0,96,0.05,,,0.39,weatherlink.com 1.10,2014-03-03 12:33:00,
2014-03-03 07:48:00,37.1,36.0,29.87,WNW,302,4.0,11.0,96,0.05,,,0.40,weatherlink.com 1.10,2014-03-03 12:48:00,
2014-03-03 08:03:00,36.9,36.0,29.87,NNW,329,0.0,11.0,96,0.03,,,0.40,weatherlink.com 1.10,2014-03-03 13:03:00,
2014-03-03 08:18:00,36.7,36.0,29.88,NW,313,1.0,10.0,96,0.02,,,0.40,weatherlink.com 1.10,2014-03-03 13:18:00,
2014-03-03 08:33:00,36.9,36.0,29.89,WNW,298,0.0,12.0,96,0.01,,,0.40,weatherlink.com 1.10,2014-03-03 13:33:00,
2014-03-03 08:48:00,36.4,35.0,29.90,North,5,3.0,11.0,96,0.01,,,0.41,weatherlink.com 1.10,2014-03-03 13:48:00,
2014-03-03 09:03:00,35.6,35.0,29.92,NNW,333,8.0,15.0,96,0.01,,,0.41,weatherlink.com 1.10,2014-03-03 14:03:00,
2014-03-03 09:18:00,35.5,35.0,29.93,NNW,340,2.0,9.0,96,0.02,,,0.42,weatherlink.com 1.10,2014-03-03 14:18:00,
2014-03-03 09:33:00,34.9,34.0,29.94,WNW,283,4.0,14.0,96,0.02,,,0.42,weatherlink.com 1.10,2014-03-03 14:33:00,
2014-03-03 09:48:00,34.7,34.0,29.95,West,274,3.0,15.0,96,0.01,,,0.42,weatherlink.com 1.10,2014-03-03 14:48:00,
2014-03-03 10:03:00,34.1,33.0,29.96,West,279,12.0,14.0,96,0.02,,,0.43,weatherlink.com 1.10,2014-03-03 15:03:00,
2014-03-03 10:18:00,33.5,33.0,29.97,NW,325,4.0,14.0,96,0.01,,,0.43,weatherlink.com 1.10,2014-03-03 15:18:00,
2014-03-03 10:33:00,32.1,31.0,29.98,WNW,293,6.0,18.0,95,0.01,,,0.43,weatherlink.com 1.10,2014-03-03 15:33:00,
2014-03-03 10:48:00,30.8,30.0,29.98,West,279,7.0,16.0,95,0.01,,,0.43,weatherlink.com 1.10,2014-03-03 15:48:00,
2014-03-03 11:03:00,30.2,29.0,30.00,West,280,3.0,15.0,95,0.00,,,0.43,weatherlink.com 1.10,2014-03-03 16:03:00,
2014-03-03 11:18:00,29.4,28.0,30.01,NW,319,2.0,10.0,95,0.00,,,0.43,weatherlink.com 1.10,2014-03-03 16:18:00,
2014-03-03 11:33:00,29.0,28.0,30.02,West,277,3.0,11.0,95,0.00,,,0.43,weatherlink.com 1.10,2014-03-03 16:33:00,
2014-03-03 11:48:00,28.9,28.0,30.03,NW,317,5.0,11.0,95,0.00,,,0.43,weatherlink.com 1.10,2014-03-03 16:48:00,
2014-03-03 12:03:00,29.0,28.0,30.03,NNW,330,2.0,7.0,96,0.00,,,0.43,weatherlink.com 1.10,2014-03-03 17:03:00,
2014-03-03 12:18:00,29.2,28.0,30.03,NW,317,2.0,9.0,96,0.00,,,0.43,weatherlink.com 1.10,2014-03-03 17:18:00,
2014-03-03 12:33:00,28.7,28.0,30.04,NW,321,3.0,9.0,95,0.00,,,0.43,weatherlink.com 1.10,2014-03-03 17:33:00,
2014-03-03 12:48:00,29.0,28.0,30.04,NW,321,1.0,11.0,96,0.00,,,0.43,weatherlink.com 1.10,2014-03-03 17:48:00,
2014-03-03 13:03:00,29.0,28.0,30.05,NNW,332,4.0,8.0,96,0.01,,,0.44,weatherlink.com 1.10,2014-03-03 18:03:00,
2014-03-03 13:18:00,29.0,28.0,30.04,NW,312,1.0,9.0,95,0.01,,,0.44,weatherlink.com 1.10,2014-03-03 18:18:00,
2014-03-03 13:34:00,29.1,28.0,30.04,West,281,3.0,7.0,96,0.01,,,0.44,weatherlink.com 1.10,2014-03-03 18:34:00,
2014-03-03 13:49:00,29.5,29.0,30.05,NNE,15,3.0,5.0,96,0.01,,,0.44,weatherlink.com 1.10,2014-03-03 18:49:00,
2014-03-03 14:04:00,29.8,29.0,30.05,WNW,292,2.0,7.0,96,0.00,,,0.44,weatherlink.com 1.10,2014-03-03 19:04:00,
2014-03-03 14:19:00,29.5,28.0,30.05,NW,305,6.0,11.0,95,0.00,,,0.44,weatherlink.com 1.10,2014-03-03 19:19:00,
2014-03-03 14:34:00,29.8,28.0,30.06,NW,322,3.0,11.0,94,0.00,,,0.44,weatherlink.com 1.10,2014-03-03 19:34:00,
2014-03-03 14:49:00,29.9,29.0,30.06,WNW,288,3.0,9.0,95,0.00,,,0.44,weatherlink.com 1.10,2014-03-03 19:49:00,
2014-03-03 15:04:00,29.7,28.0,30.07,NNW,331,0.0,12.0,93,0.00,,,0.44,weatherlink.com 1.10,2014-03-03 20:04:00,
2014-03-03 15:34:00,29.1,27.0,30.08,NW,307,4.0,11.0,92,0.00,,,0.44,weatherlink.com 1.10,2014-03-03 20:34:00,
2014-03-03 15:49:00,28.9,27.0,30.09,WNW,282,2.0,9.0,93,0.00,,,0.44,weatherlink.com 1.10,2014-03-03 20:49:00,
2014-03-03 16:04:00,28.7,26.0,30.10,NW,321,7.0,8.0,91,0.00,,,0.44,weatherlink.com 1.10,2014-03-03 21:04:00,
2014-03-03 16:19:00,28.2,26.0,30.11,NW,305,2.0,15.0,91,0.00,,,0.44,weatherlink.com 1.10,2014-03-03 21:19:00,
2014-03-03 16:34:00,27.4,25.0,30.12,WNW,290,6.0,13.0,90,0.00,,,0.44,weatherlink.com 1.10,2014-03-03 21:34:00,
2014-03-03 16:49:00,27.0,25.0,30.13,West,263,2.0,15.0,91,0.00,,,0.44,weatherlink.com 1.10,2014-03-03 21:49:00,
2014-03-03 17:04:00,26.7,25.0,30.14,North,360,8.0,9.0,92,0.00,,,0.44,weatherlink.com 1.10,2014-03-03 22:04:00,
2014-03-03 17:19:00,26.5,25.0,30.15,West,273,3.0,13.0,92,0.00,,,0.44,weatherlink.com 1.10,2014-03-03 22:19:00,
2014-03-03 17:34:00,26.0,24.0,30.16,NW,325,5.0,13.0,91,0.00,,,0.44,weatherlink.com 1.10,2014-03-03 22:34:00,
2014-03-03 17:49:00,25.8,24.0,30.17,NW,316,3.0,9.0,91,0.00,,,0.44,weatherlink.com 1.10,2014-03-03 22:49:00,
2014-03-03 18:04:00,25.8,23.0,30.18,WNW,289,4.0,14.0,90,0.00,,,0.44,weatherlink.com 1.10,2014-03-03 23:04:00,
2014-03-03 18:19:00,25.2,22.0,30.19,North,355,2.0,14.0,89,0.00,,,0.44,weatherlink.com 1.10,2014-03-03 23:19:00,
2014-03-03 18:34:00,24.8,22.0,30.19,WNW,291,3.0,13.0,90,0.00,,,0.44,weatherlink.com 1.10,2014-03-03 23:34:00,
2014-03-03 18:50:00,24.7,22.0,30.19,North,355,7.0,9.0,89,0.00,,,0.44,weatherlink.com 1.10,2014-03-03 23:50:00,
2014-03-03 19:04:00,24.6,22.0,30.19,NW,315,2.0,7.0,90,0.00,,,0.44,weatherlink.com 1.10,2014-03-04 00:04:00,
2014-03-03 19:19:00,24.8,22.0,30.20,WNW,286,3.0,7.0,90,0.00,,,0.44,weatherlink.com 1.10,2014-03-04 00:19:00,
2014-03-03 19:34:00,24.8,22.0,30.19,NNE,17,0.0,7.0,89,0.00,,,0.44,weatherlink.com 1.10,2014-03-04 00:34:00,
2014-03-03 19:49:00,24.6,22.0,30.21,North,360,3.0,7.0,89,0.00,,,0.44,weatherlink.com 1.10,2014-03-04 00:49:00,
2014-03-03 20:04:00,24.5,22.0,30.21,NNW,328,4.0,6.0,90,0.00,,,0.44,weatherlink.com 1.10,2014-03-04 01:04:00,
2014-03-03 20:19:00,24.4,22.0,30.23,NW,307,3.0,5.0,90,0.00,,,0.44,weatherlink.com 1.10,2014-03-04 01:19:00,
2014-03-03 20:35:00,24.4,22.0,30.23,West,281,2.0,9.0,90,0.00,,,0.44,weatherlink.com 1.10,2014-03-04 01:35:00,
2014-03-03 20:50:00,24.3,22.0,30.22,WNW,298,3.0,15.0,89,0.00,,,0.44,weatherlink.com 1.10,2014-03-04 01:50:00,
2014-03-03 21:05:00,24.2,22.0,30.22,WNW,300,1.0,13.0,90,0.00,,,0.44,weatherlink.com 1.10,2014-03-04 02:05:00,
2014-03-03 21:20:00,24.2,22.0,30.22,NNW,335,2.0,8.0,90,0.00,,,0.44,weatherlink.com 1.10,2014-03-04 02:20:00,
2014-03-03 21:35:00,24.4,22.0,30.22,NNW,340,0.0,10.0,90,0.00,,,0.44,weatherlink.com 1.10,2014-03-04 02:35:00,
2014-03-03 21:50:00,24.4,22.0,30.22,NNW,338,3.0,10.0,90,0.00,,,0.44,weatherlink.com 1.10,2014-03-04 02:50:00,
2014-03-03 22:05:00,24.4,22.0,30.24,NE,36,6.0,8.0,89,0.00,,,0.44,weatherlink.com 1.10,2014-03-04 03:05:00,
2014-03-03 22:20:00,24.7,23.0,30.24,NNW,341,1.0,5.0,91,0.00,,,0.44,weatherlink.com 1.10,2014-03-04 03:20:00,
2014-03-03 22:35:00,24.7,22.0,30.25,NW,305,7.0,11.0,90,0.00,,,0.44,weatherlink.com 1.10,2014-03-04 03:35:00,
2014-03-03 22:50:00,24.5,22.0,30.25,West,265,2.0,10.0,90,0.00,,,0.44,weatherlink.com 1.10,2014-03-04 03:50:00,
2014-03-03 23:05:00,24.5,22.0,30.23,NNE,26,0.0,5.0,90,0.00,,,0.44,weatherlink.com 1.10,2014-03-04 04:05:00,
2014-03-03 23:20:00,24.3,22.0,30.23,NW,317,0.0,7.0,90,0.00,,,0.44,weatherlink.com 1.10,2014-03-04 04:20:00,
2014-03-03 23:35:00,24.2,22.0,30.24,ENE,57,0.0,4.0,91,0.00,,,0.44,weatherlink.com 1.10,2014-03-04 04:35:00,
2014-03-03 23:50:00,24.3,22.0,30.24,NNW,333,1.0,4.0,91,0.00,,,0.44,weatherlink.com 1.10,2014-03-04 04:50:00,